This is the latest recevied weather packets stored in our database for station/object BMCB-35. If no packets are shown the sender has not sent any weather packets the latest 10 day(s).
| Time | Temp. | Humidity | Pressure | Rain* | Wind** | Luminosity | Snow |
|---|---|---|---|---|---|---|---|
| 1777633823 | 18.89° C | 27% | 1024.8 hPa | 0 mm | - | 785 W/m² | - |
| 1777626017 | 15.56° C | 30% | 1025.4 hPa | 0 mm | - | 636 W/m² | - |
| 1777626015 | 15.56° C | 31% | 1025.5 hPa | 0 mm | - | 615 W/m² | - |
| 1777625440 | 15° C | 31% | 1025.5 hPa | 0 mm | - | 594 W/m² | - |
| 1777623046 | 13.89° C | 33% | 1025.5 hPa | 0 mm | - | 525 W/m² | - |
| 1777621810 | 12.78° C | 35% | 1025.7 hPa | 0 mm | - | 447 W/m² | - |
| 1777620613 | 12.78° C | 36% | 1025.7 hPa | 0 mm | - | 392 W/m² | - |
| 1777620034 | 12.22° C | 37% | 1025.7 hPa | 0 mm | - | 364 W/m² | - |
| 1777615233 | 8.89° C | 43% | 1025.9 hPa | 0 mm | - | 135 W/m² | - |
| 1777614636 | 8.33° C | 47% | 1026 hPa | 0 mm | - | 110 W/m² | - |
| 1777614013 | 7.22° C | 52% | 1026 hPa | 0 mm | - | 46 W/m² | - |
| 1777611643 | 7.22° C | 50% | 1025.8 hPa | 0 mm | - | 13 W/m² | - |
| 1777609208 | 6.67° C | 47% | 1025.8 hPa | 0 mm | - | 0 W/m² | - |
| 1777608623 | 6.67° C | 50% | 1025.7 hPa | 0 mm | - | 0 W/m² | - |
| 1777604404 | 6.67° C | 54% | 1025.9 hPa | 0 mm | - | 0 W/m² | - |
| 1777603204 | 6.67° C | 52% | 1025.9 hPa | 0 mm | - | 0 W/m² | - |
| 1777599613 | 7.22° C | 49% | 1025.9 hPa | 0 mm | - | 0 W/m² | - |
| 1777597823 | 7.78° C | 48% | 1025.8 hPa | 0 mm | - | 0 W/m² | - |
| 1777597238 | 7.78° C | 48% | 1025.9 hPa | 0 mm | - | 0 W/m² | - |
| 1777594811 | 8.33° C | 45% | 1025.9 hPa | 0 mm | - | 0 W/m² | - |
| 1777593636 | 8.33° C | 48% | 1025.8 hPa | 0 mm | - | 0 W/m² | - |
| 1777588814 | 11.11° C | 36% | 1025.3 hPa | 0 mm | - | 0 W/m² | - |
| 1777587609 | 11.11° C | 37% | 1025.5 hPa | 0 mm | - | 0 W/m² | - |
| 1777586410 | 11.11° C | 35% | 1025.3 hPa | 0 mm | - | 0 W/m² | - |
| 1777585810 | 11.11° C | 35% | 1025.3 hPa | 0 mm | - | 0 W/m² | - |
* Rain latest hour (hover to see other rain measurements)
** Current wind speed in m/s (hover to see current wind gust speed)